Terminal Aerodrome Forecast
Issued by NWS Portland, OR

Home | Current Version | Previous Version | Text Only | Print | Product List | Glossary On
Versions: 1 2 3 4 5 6 7 8 9 10 11 12 13 14 15 16 17 18 19 20 21 22 23 24 25
000
FTUS46 KPQR 202330
TAFTTD
TAF
KTTD 202330Z 2100/2124 09017G28KT P6SM SCT060 BKN100
     FM211000 09015G24KT P6SM SCT040 BKN070
      TEMPO 2113/2117 -RA
     FM211700 09014G24KT P6SM -RA BKN040 OVC050
     FM212100 10013KT 4SM RA BR BKN025 OVC035=

USA.gov is the U.S. government's official web portal to all federal, state and local government web resources and services.